createdAt,value
2018-11-03T00:00:54.008Z,4.54
2018-11-03T00:03:23.069Z,4.68
2018-11-03T00:05:52.097Z,4.61
2018-11-03T00:08:22.123Z,4.67
2018-11-03T00:11:07.959Z,4.76
2018-11-03T00:13:37.022Z,4.79
2018-11-03T00:16:06.265Z,4.83
2018-11-03T00:18:36.358Z,4.84
2018-11-03T00:21:05.478Z,4.79
2018-11-03T00:23:34.514Z,4.85
2018-11-03T00:26:03.545Z,4.86
2018-11-03T00:28:32.568Z,4.87
2018-11-03T00:31:01.627Z,4.87
2018-11-03T00:33:30.687Z,4.85
2018-11-03T00:35:59.763Z,4.81
2018-11-03T00:38:28.816Z,4.80
2018-11-03T00:40:57.870Z,4.78
2018-11-03T00:43:26.915Z,4.80
2018-11-03T00:45:55.943Z,4.79
2018-11-03T00:48:24.996Z,4.72
2018-11-03T00:50:54.045Z,4.70
2018-11-03T00:53:23.087Z,4.61
2018-11-03T00:55:52.115Z,4.56
2018-11-03T00:58:21.157Z,4.57
2018-11-03T01:00:50.185Z,4.57
2018-11-03T01:03:19.231Z,4.51
2018-11-03T01:05:48.283Z,4.46
2018-11-03T01:08:17.321Z,4.45
2018-11-03T01:10:46.385Z,4.39
2018-11-03T01:13:15.459Z,4.39
2018-11-03T01:15:44.478Z,4.36
2018-11-03T01:18:13.502Z,4.33
2018-11-03T01:20:42.535Z,4.33
2018-11-03T01:23:11.573Z,4.25
2018-11-03T01:25:40.630Z,4.18
2018-11-03T01:28:09.677Z,4.18
2018-11-03T01:30:38.728Z,4.15
2018-11-03T01:33:07.785Z,4.07
2018-11-03T01:35:36.812Z,4.12
2018-11-03T01:38:05.997Z,4.13
2018-11-03T01:40:35.043Z,4.06
2018-11-03T01:43:04.083Z,4.01
2018-11-03T01:45:33.125Z,3.92
2018-11-03T01:48:02.191Z,3.93
2018-11-03T01:51:22.164Z,3.90
2018-11-03T01:53:51.180Z,3.89
2018-11-03T01:56:20.234Z,3.91
2018-11-03T01:58:49.314Z,3.85
2018-11-03T02:01:19.267Z,3.82
2018-11-03T02:03:48.330Z,3.77
2018-11-03T02:06:17.349Z,3.74
2018-11-03T02:08:46.395Z,3.74
2018-11-03T02:11:15.456Z,3.75
2018-11-03T02:13:44.507Z,3.68
2018-11-03T02:16:13.551Z,3.70
2018-11-03T02:18:42.704Z,3.72
2018-11-03T02:21:11.795Z,3.64
2018-11-03T02:23:40.814Z,3.62
2018-11-03T02:26:09.963Z,3.60
2018-11-03T02:28:39.006Z,3.58
2018-11-03T02:31:08.074Z,3.52
2018-11-03T02:33:37.123Z,3.54
2018-11-03T02:36:06.179Z,3.53
2018-11-03T02:38:35.239Z,3.44
2018-11-03T02:41:04.286Z,3.39
2018-11-03T02:43:33.347Z,3.40
2018-11-03T02:46:02.375Z,3.35
2018-11-03T02:48:31.434Z,3.34
2018-11-03T02:51:00.460Z,3.34
2018-11-03T02:53:29.522Z,3.33
2018-11-03T02:55:58.577Z,3.30
2018-11-03T02:58:27.638Z,3.25
2018-11-03T03:00:56.686Z,3.26
2018-11-03T03:03:25.757Z,3.24
2018-11-03T03:05:54.803Z,3.23
2018-11-03T03:08:23.850Z,3.25
2018-11-03T03:10:52.919Z,3.22
2018-11-03T03:13:21.957Z,3.21
2018-11-03T03:15:51.016Z,3.14
2018-11-03T03:18:20.083Z,3.22
2018-11-03T03:20:49.119Z,3.15
2018-11-03T03:23:18.183Z,3.17
2018-11-03T03:25:47.239Z,3.10
2018-11-03T03:28:16.284Z,3.06
2018-11-03T03:30:45.413Z,3.05
2018-11-03T03:33:14.719Z,3.05
2018-11-03T03:35:43.842Z,3.09
2018-11-03T03:38:12.918Z,3.07
2018-11-03T03:40:41.978Z,3.00
2018-11-03T03:43:11.039Z,2.97
2018-11-03T03:45:40.085Z,2.96
2018-11-03T03:48:09.113Z,2.97
2018-11-03T03:50:38.175Z,2.92
2018-11-03T03:53:07.402Z,2.95
2018-11-03T03:55:36.479Z,2.93
2018-11-03T03:58:05.887Z,2.91
2018-11-03T04:00:34.912Z,2.89
2018-11-03T04:03:03.959Z,2.88
2018-11-03T04:05:33.053Z,2.88
2018-11-03T04:08:02.110Z,2.87
2018-11-03T04:10:31.169Z,2.85
2018-11-03T04:13:05.684Z,2.88
2018-11-03T04:15:34.826Z,2.84
2018-11-03T04:18:03.903Z,2.82
2018-11-03T04:20:32.982Z,2.84
2018-11-03T04:23:02.051Z,2.81
2018-11-03T04:25:31.130Z,2.84
2018-11-03T04:28:00.243Z,2.81
2018-11-03T04:30:29.309Z,2.77
2018-11-03T04:32:58.401Z,2.79
2018-11-03T04:35:27.507Z,2.76
2018-11-03T04:37:56.624Z,2.78
2018-11-03T04:40:25.671Z,2.78
2018-11-03T04:42:54.729Z,2.77
2018-11-03T04:45:23.848Z,2.73
2018-11-03T04:47:52.835Z,2.77
2018-11-03T04:50:21.897Z,2.73
2018-11-03T04:52:51.033Z,2.76
2018-11-03T04:55:20.074Z,2.72
2018-11-03T04:57:49.058Z,2.69
2018-11-03T05:00:18.179Z,2.69
2018-11-03T05:02:47.299Z,2.69
2018-11-03T05:05:16.358Z,2.70
2018-11-03T05:07:45.410Z,2.65
2018-11-03T05:10:14.485Z,2.64
2018-11-03T05:12:43.472Z,2.66
2018-11-03T05:15:12.568Z,2.67
2018-11-03T05:17:41.599Z,2.66
2018-11-03T05:20:10.656Z,2.68
2018-11-03T05:22:39.774Z,2.67
2018-11-03T05:25:08.861Z,2.61
2018-11-03T05:27:37.903Z,2.62
2018-11-03T05:30:07.428Z,2.61
2018-11-03T05:32:36.747Z,2.59
2018-11-03T05:35:06.231Z,2.57
2018-11-03T05:37:35.286Z,2.57
2018-11-03T05:40:04.368Z,2.54
2018-11-03T05:42:33.407Z,2.51
2018-11-03T05:45:02.438Z,2.31
2018-11-03T05:47:31.560Z,2.41
2018-11-03T05:50:00.650Z,2.52
2018-11-03T05:52:29.666Z,2.48
2018-11-03T05:54:58.709Z,2.49
2018-11-03T05:57:27.784Z,2.52
2018-11-03T05:59:56.850Z,2.52
2018-11-03T06:02:25.873Z,2.50
2018-11-03T06:04:54.916Z,2.56
2018-11-03T06:07:24.219Z,2.57
2018-11-03T06:09:53.262Z,2.56
2018-11-03T06:12:22.287Z,2.59
2018-11-03T06:14:51.326Z,2.63
2018-11-03T06:17:20.391Z,2.62
2018-11-03T06:19:49.418Z,2.62
2018-11-03T06:22:18.552Z,2.64
2018-11-03T06:24:47.518Z,2.62
2018-11-03T06:27:17.927Z,2.59
2018-11-03T06:29:46.939Z,2.60
2018-11-03T06:32:15.990Z,2.56
2018-11-03T06:34:45.059Z,2.61
2018-11-03T06:37:14.110Z,2.46
2018-11-03T06:39:43.206Z,2.54
2018-11-03T06:42:12.260Z,2.58
2018-11-03T06:44:41.276Z,2.60
2018-11-03T06:47:10.365Z,2.61
2018-11-03T06:49:39.429Z,2.55
2018-11-03T06:52:08.500Z,2.59
2018-11-03T06:54:37.554Z,2.62
2018-11-03T06:57:06.702Z,2.64
2018-11-03T06:59:35.929Z,2.66
2018-11-03T07:02:05.134Z,2.65
2018-11-03T07:04:34.194Z,2.68
2018-11-03T07:07:03.369Z,2.69
2018-11-03T07:09:32.407Z,2.69
2018-11-03T07:12:02.520Z,2.74
2018-11-03T07:14:31.518Z,2.81
2018-11-03T07:17:00.578Z,2.78
2018-11-03T07:19:29.633Z,2.84
2018-11-03T07:21:58.750Z,2.88
2018-11-03T07:24:27.818Z,2.96
2018-11-03T07:26:56.883Z,2.96
2018-11-03T07:29:26.233Z,2.97
2018-11-03T07:31:55.995Z,3.04
2018-11-03T07:34:25.110Z,3.08
2018-11-03T07:36:54.186Z,3.11
2018-11-03T07:39:23.259Z,3.16
2018-11-03T07:41:52.347Z,3.21
2018-11-03T07:44:21.398Z,3.26
2018-11-03T07:46:50.471Z,3.32
2018-11-03T07:49:22.250Z,3.30
2018-11-03T07:51:53.793Z,3.37
2018-11-03T07:54:28.520Z,3.41
2018-11-03T07:57:01.104Z,3.44
2018-11-03T07:59:40.199Z,3.48
2018-11-03T08:02:09.439Z,3.53
2018-11-03T08:04:45.621Z,3.54
2018-11-03T08:07:19.451Z,3.62
2018-11-03T08:09:48.499Z,3.61
2018-11-03T08:12:17.555Z,3.55
2018-11-03T08:14:46.608Z,3.68
2018-11-03T08:17:17.036Z,3.68
2018-11-03T08:19:46.072Z,3.77
2018-11-03T08:22:15.693Z,3.82
2018-11-03T08:24:44.756Z,3.87
2018-11-03T08:27:13.806Z,3.92
2018-11-03T08:29:43.880Z,3.95
2018-11-03T08:32:14.334Z,3.96
2018-11-03T08:34:43.728Z,4.12
2018-11-03T08:37:12.872Z,4.19
2018-11-03T08:39:41.917Z,4.22
2018-11-03T08:42:10.972Z,4.30
2018-11-03T08:44:40.027Z,4.33
2018-11-03T08:47:09.137Z,4.40
2018-11-03T08:49:39.345Z,4.49
2018-11-03T08:52:08.436Z,4.51
2018-11-03T08:54:37.520Z,4.69
2018-11-03T08:57:06.650Z,4.85
2018-11-03T08:59:35.791Z,5.00
2018-11-03T09:02:05.326Z,5.04
2018-11-03T09:04:34.466Z,5.25
2018-11-03T09:07:03.613Z,5.35
2018-11-03T09:09:32.839Z,5.57
2018-11-03T09:12:01.928Z,5.70
2018-11-03T09:14:31.052Z,5.97
2018-11-03T09:17:04.595Z,6.00
2018-11-03T09:19:36.281Z,6.15
2018-11-03T09:22:05.425Z,6.52
2018-11-03T09:24:34.479Z,6.77
2018-11-03T09:27:03.591Z,6.96
2018-11-03T09:29:32.654Z,7.19
2018-11-03T09:32:01.835Z,7.35
2018-11-03T09:34:30.787Z,7.61
2018-11-03T09:36:59.836Z,7.68
2018-11-03T09:39:29.591Z,7.96
2018-11-03T09:41:58.866Z,8.17
2018-11-03T09:44:28.682Z,7.75
2018-11-03T09:46:57.947Z,7.99
2018-11-03T09:49:27.021Z,8.34
2018-11-03T09:51:56.055Z,8.46
2018-11-03T09:54:25.111Z,8.40
2018-11-03T09:56:54.155Z,8.49
2018-11-03T09:59:23.251Z,8.75
2018-11-03T10:01:52.299Z,8.80
2018-11-03T10:04:21.400Z,8.95
2018-11-03T10:06:50.411Z,8.91
2018-11-03T10:09:19.452Z,8.75
2018-11-03T10:11:49.652Z,8.37
2018-11-03T10:14:18.670Z,8.68
2018-11-03T10:16:47.926Z,8.81
2018-11-03T10:19:17.488Z,8.98
2018-11-03T10:21:46.566Z,8.83
2018-11-03T10:24:15.646Z,8.60
2018-11-03T10:26:44.722Z,8.64
2018-11-03T10:29:13.801Z,8.71
2018-11-03T10:31:42.902Z,9.07
2018-11-03T10:34:12.115Z,8.81
2018-11-03T10:36:41.211Z,8.32
2018-11-03T10:39:11.755Z,8.75
2018-11-03T10:41:41.717Z,8.87
2018-11-03T10:44:11.110Z,8.98
2018-11-03T10:46:40.234Z,8.49
2018-11-03T10:49:09.273Z,8.84
2018-11-03T10:51:38.317Z,8.87
2018-11-03T10:54:07.663Z,8.92
2018-11-03T10:56:36.714Z,8.85
2018-11-03T10:59:05.767Z,8.77
2018-11-03T11:01:40.025Z,9.01
2018-11-03T11:04:14.945Z,9.09
2018-11-03T11:06:49.259Z,9.04
2018-11-03T11:09:23.610Z,8.99
2018-11-03T11:11:58.857Z,9.04
2018-11-03T11:14:27.898Z,9.00
2018-11-03T11:16:57.020Z,8.99
2018-11-03T11:19:26.018Z,8.89
2018-11-03T11:21:56.535Z,9.13
2018-11-03T11:24:25.636Z,9.26
2018-11-03T11:26:54.599Z,9.51
2018-11-03T11:29:23.706Z,9.47
2018-11-03T11:31:54.683Z,9.69
2018-11-03T11:34:23.747Z,9.80
2018-11-03T11:36:53.216Z,9.79
2018-11-03T11:39:22.300Z,9.91
2018-11-03T11:41:51.351Z,10.01
2018-11-03T11:44:21.107Z,10.10
2018-11-03T11:46:50.231Z,10.15
2018-11-03T11:49:19.362Z,10.22
2018-11-03T11:54:40.837Z,10.49
2018-11-03T11:57:10.400Z,10.83
2018-11-03T11:59:39.463Z,10.85
2018-11-03T12:02:10.719Z,10.85
2018-11-03T12:04:40.444Z,10.96
2018-11-03T12:07:09.666Z,11.23
2018-11-03T12:09:39.086Z,11.31
2018-11-03T12:12:08.320Z,11.36
2018-11-03T12:14:37.455Z,11.52
2018-11-03T12:17:07.134Z,11.54
2018-11-03T12:19:36.273Z,11.45
2018-11-03T12:22:05.671Z,11.70
2018-11-03T12:24:49.968Z,11.86
2018-11-03T12:27:19.233Z,11.96
2018-11-03T12:29:49.041Z,11.83
2018-11-03T12:32:24.729Z,11.92
2018-11-03T12:34:54.314Z,12.06
2018-11-03T12:37:23.480Z,12.17
2018-11-03T12:39:52.685Z,12.36
2018-11-03T12:42:22.057Z,12.70
2018-11-03T12:44:51.144Z,12.43
2018-11-03T12:47:20.284Z,12.34
2018-11-03T12:49:49.397Z,12.29
2018-11-03T12:52:18.514Z,12.47
2018-11-03T12:54:47.917Z,12.46
2018-11-03T12:57:17.090Z,12.51
2018-11-03T12:59:46.173Z,12.51
2018-11-03T13:02:15.305Z,12.54
2018-11-03T13:04:44.444Z,12.61
2018-11-03T13:07:13.646Z,12.67
2018-11-03T13:09:42.990Z,12.58
2018-11-03T13:12:12.066Z,12.25
2018-11-03T13:14:41.483Z,12.44
2018-11-03T13:17:10.543Z,12.26
2018-11-03T13:19:39.652Z,12.29
2018-11-03T13:22:08.914Z,12.09
2018-11-03T13:24:39.012Z,12.20
2018-11-03T13:27:08.353Z,12.22
2018-11-03T13:29:37.425Z,11.83
2018-11-03T13:32:06.667Z,12.00
2018-11-03T13:34:35.715Z,11.68
2018-11-03T13:37:04.870Z,11.82
2018-11-03T13:39:34.106Z,11.91
2018-11-03T13:42:03.215Z,11.71
2018-11-03T13:44:32.270Z,11.92
2018-11-03T13:47:01.497Z,11.86
2018-11-03T13:49:30.583Z,12.01
2018-11-03T13:51:59.959Z,12.11
2018-11-03T13:54:29.029Z,11.81
2018-11-03T13:56:58.137Z,11.86
2018-11-03T13:59:27.220Z,11.80
2018-11-03T14:01:56.389Z,11.86
2018-11-03T14:04:25.580Z,11.67
2018-11-03T14:06:55.462Z,11.75
2018-11-03T14:09:24.582Z,11.73
2018-11-03T14:11:55.352Z,11.45
2018-11-03T14:14:25.147Z,11.86
2018-11-03T14:16:54.938Z,11.79
2018-11-03T14:19:24.538Z,11.81
2018-11-03T14:21:53.735Z,11.67
2018-11-03T14:24:23.167Z,11.71
2018-11-03T14:26:52.289Z,11.69
2018-11-03T14:29:21.410Z,11.69
2018-11-03T14:31:50.960Z,11.89
2018-11-03T14:34:20.155Z,11.83
2018-11-03T14:36:50.099Z,11.61
2018-11-03T14:39:19.187Z,11.52
2018-11-03T14:41:48.307Z,11.18
2018-11-03T14:44:17.483Z,11.24
2018-11-03T14:46:46.596Z,11.40
2018-11-03T14:49:15.926Z,11.36
2018-11-03T14:51:45.133Z,11.52
2018-11-03T14:54:15.261Z,11.50
2018-11-03T14:56:44.515Z,11.43
2018-11-03T14:59:13.963Z,11.46
2018-11-03T15:01:43.761Z,11.44
2018-11-03T15:04:14.011Z,11.38
2018-11-03T15:06:43.988Z,11.18
2018-11-03T15:09:18.012Z,10.89
2018-11-03T15:11:47.135Z,11.08
2018-11-03T15:14:18.872Z,11.19
2018-11-03T15:16:48.357Z,11.21
2018-11-03T15:19:20.972Z,11.15
2018-11-03T15:21:50.272Z,11.06
2018-11-03T15:24:20.298Z,10.86
2018-11-03T15:26:49.379Z,11.02
2018-11-03T15:29:18.545Z,11.05
2018-11-03T15:31:47.709Z,10.83
2018-11-03T15:34:16.940Z,10.78
2018-11-03T15:36:46.039Z,10.91
2018-11-03T15:39:15.147Z,10.69
2018-11-03T15:41:44.366Z,10.71
2018-11-03T15:44:13.519Z,10.54
2018-11-03T15:46:43.149Z,10.54
2018-11-03T15:49:12.379Z,10.44
2018-11-03T15:51:42.020Z,10.29
2018-11-03T15:54:11.822Z,10.20
2018-11-03T15:56:40.983Z,10.18
2018-11-03T15:59:10.142Z,10.32
2018-11-03T16:01:39.314Z,10.32
2018-11-03T16:04:08.482Z,10.27
2018-11-03T16:06:37.702Z,10.16
2018-11-03T16:09:09.611Z,10.15
2018-11-03T16:11:39.152Z,10.09
2018-11-03T16:14:08.801Z,10.09
2018-11-03T16:16:38.845Z,10.02
2018-11-03T16:19:08.661Z,9.96
2018-11-03T16:21:37.863Z,9.94
2018-11-03T16:24:09.754Z,9.87
2018-11-03T16:26:38.951Z,9.75
2018-11-03T16:29:08.010Z,9.69
2018-11-03T16:31:37.015Z,9.65
2018-11-03T16:34:06.160Z,9.59
2018-11-03T16:36:35.209Z,9.58
2018-11-03T16:39:05.359Z,9.38
2018-11-03T16:41:34.896Z,9.33
2018-11-03T16:44:04.779Z,9.23
2018-11-03T16:46:33.879Z,9.19
2018-11-03T16:49:02.938Z,9.11
2018-11-03T16:51:31.993Z,9.07
2018-11-03T16:54:01.047Z,9.04
2018-11-03T16:56:30.467Z,8.96
2018-11-03T16:58:59.567Z,8.86
2018-11-03T17:01:28.657Z,8.80
2018-11-03T17:03:58.404Z,8.75
2018-11-03T17:06:27.550Z,8.63
2018-11-03T17:08:56.631Z,8.58
2018-11-03T17:11:25.692Z,8.47
2018-11-03T17:13:54.752Z,8.44
2018-11-03T17:16:23.878Z,8.37
2018-11-03T17:18:53.089Z,8.30
2018-11-03T17:21:22.002Z,8.24
2018-11-03T17:23:51.068Z,8.19
2018-11-03T17:26:20.148Z,8.14
2018-11-03T17:28:49.262Z,8.09
2018-11-03T17:31:18.381Z,8.01
2018-11-03T17:33:48.397Z,7.96
2018-11-03T17:36:17.697Z,7.92
2018-11-03T17:38:46.753Z,7.88
2018-11-03T17:41:17.322Z,7.79
2018-11-03T17:43:46.896Z,7.77
2018-11-03T17:50:11.323Z,7.67
2018-11-03T18:03:13.423Z,7.43
2018-11-03T18:13:48.079Z,7.24
2018-11-03T18:16:39.702Z,7.19
2018-11-03T18:19:08.834Z,7.07
2018-11-03T18:21:48.984Z,7.10
2018-11-03T18:24:34.498Z,7.11
2018-11-03T18:27:14.411Z,7.06
2018-11-03T18:30:02.208Z,7.05
2018-11-03T18:38:58.925Z,6.96
2018-11-03T18:41:40.309Z,6.93
2018-11-03T18:44:27.027Z,6.86
2018-11-03T18:47:06.042Z,6.90
2018-11-03T18:49:38.191Z,6.84
2018-11-03T18:54:51.247Z,6.81
2018-11-03T18:57:33.993Z,6.78
2018-11-03T19:00:35.062Z,6.73
2018-11-03T19:03:16.302Z,6.69
2018-11-03T19:06:02.554Z,6.67
2018-11-03T19:11:32.207Z,6.60
2018-11-03T19:14:04.847Z,6.54
2018-11-03T19:16:59.942Z,6.48
2018-11-03T19:19:35.466Z,6.43
2018-11-03T19:22:04.646Z,6.42
2018-11-03T19:24:36.187Z,6.40
2018-11-03T19:27:08.234Z,6.38
2018-11-03T19:29:37.330Z,6.31
2018-11-03T19:32:06.973Z,6.30
2018-11-03T19:34:35.979Z,6.28
2018-11-03T19:37:05.080Z,6.21
2018-11-03T19:39:34.163Z,6.21
2018-11-03T19:42:03.266Z,6.12
2018-11-03T19:44:32.346Z,6.07
2018-11-03T19:47:01.773Z,6.09
2018-11-03T19:49:30.879Z,6.05
2018-11-03T19:51:59.943Z,5.97
2018-11-03T19:54:29.022Z,5.92
2018-11-03T19:56:58.059Z,5.92
2018-11-03T19:59:27.467Z,5.86
2018-11-03T20:01:57.361Z,5.81
2018-11-03T20:04:27.005Z,5.76
2018-11-03T20:06:56.068Z,5.76
2018-11-03T20:09:25.142Z,5.71
2018-11-03T20:11:54.231Z,5.67
2018-11-03T20:14:23.333Z,5.64
2018-11-03T20:16:54.109Z,5.62
2018-11-03T20:19:23.151Z,5.61
2018-11-03T20:21:52.265Z,5.56
2018-11-03T20:24:21.552Z,5.53
2018-11-03T20:27:00.653Z,5.49
2018-11-03T20:29:29.707Z,5.43
2018-11-03T20:31:58.950Z,5.42
2018-11-03T20:37:12.474Z,5.33
2018-11-03T20:39:41.476Z,5.33
2018-11-03T20:42:10.558Z,5.30
2018-11-03T20:44:39.615Z,5.28
2018-11-03T20:47:08.675Z,5.23
2018-11-03T20:49:38.043Z,5.22
2018-11-03T20:52:07.146Z,5.18
2018-11-03T20:54:36.179Z,5.17
2018-11-03T20:57:05.331Z,5.13
2018-11-03T20:59:34.396Z,5.08
2018-11-03T21:02:04.435Z,5.07
2018-11-03T21:04:33.456Z,5.05
2018-11-03T21:07:02.697Z,5.03
2018-11-03T21:09:31.756Z,5.00
2018-11-03T21:12:00.896Z,4.96
2018-11-03T21:14:29.961Z,4.88
2018-11-03T21:16:59.017Z,4.85
2018-11-03T21:19:29.183Z,4.84
2018-11-03T21:21:58.230Z,4.82
2018-11-03T21:24:27.278Z,4.79
2018-11-03T21:27:28.737Z,4.75
2018-11-03T21:29:57.858Z,4.72
2018-11-03T21:32:26.928Z,4.71
2018-11-03T21:34:55.992Z,4.69
2018-11-03T21:37:25.045Z,4.68
2018-11-03T21:39:54.498Z,4.65
2018-11-03T21:42:23.531Z,4.63
2018-11-03T21:44:52.556Z,4.63
2018-11-03T21:47:24.109Z,4.59
2018-11-03T21:49:53.174Z,4.60
2018-11-03T21:52:22.250Z,4.54
2018-11-03T21:54:51.314Z,4.51
2018-11-03T21:57:20.359Z,4.48
2018-11-03T21:59:49.363Z,4.45
2018-11-03T22:02:18.405Z,4.43
2018-11-03T22:04:47.474Z,4.42
2018-11-03T22:07:16.934Z,4.38
2018-11-03T22:09:46.023Z,4.37
2018-11-03T22:12:15.051Z,4.36
2018-11-03T22:14:44.063Z,4.33
2018-11-03T22:17:13.110Z,4.32
2018-11-03T22:19:42.181Z,4.29
2018-11-03T22:22:11.242Z,4.27
2018-11-03T22:24:40.287Z,4.24
2018-11-03T22:27:10.265Z,4.23
2018-11-03T22:29:39.274Z,4.25
2018-11-03T22:32:08.291Z,4.22
2018-11-03T22:34:37.369Z,4.21
2018-11-03T22:37:06.417Z,4.24
2018-11-03T22:39:35.469Z,4.26
2018-11-03T22:42:04.686Z,4.28
2018-11-03T22:44:33.802Z,4.31
2018-11-03T22:47:02.963Z,4.30
2018-11-03T22:49:32.029Z,4.32
2018-11-03T22:52:01.808Z,4.34
2018-11-03T22:54:31.399Z,4.35
2018-11-03T22:57:01.424Z,4.36
2018-11-03T22:59:30.456Z,4.40
2018-11-03T23:01:59.534Z,4.42
2018-11-03T23:04:28.567Z,4.41
2018-11-03T23:06:57.681Z,4.45
2018-11-03T23:09:26.702Z,4.39
2018-11-03T23:11:55.769Z,4.41
2018-11-03T23:14:25.441Z,4.44
2018-11-03T23:16:54.521Z,4.46
2018-11-03T23:19:23.604Z,4.45
2018-11-03T23:21:52.624Z,4.44
2018-11-03T23:24:21.665Z,4.43
2018-11-03T23:26:50.768Z,4.43
2018-11-03T23:29:19.813Z,4.41
2018-11-03T23:31:48.834Z,4.38
2018-11-03T23:34:17.931Z,4.38
2018-11-03T23:36:46.991Z,4.34
2018-11-03T23:39:16.054Z,4.26
2018-11-03T23:41:45.116Z,4.23
2018-11-03T23:44:14.790Z,4.28
2018-11-03T23:46:43.846Z,4.27
2018-11-03T23:49:13.322Z,4.26
2018-11-03T23:51:42.357Z,4.25
2018-11-03T23:54:11.479Z,4.25
2018-11-03T23:56:40.526Z,4.25
2018-11-03T23:59:09.564Z,4.23
